createdAt,value
2023-01-05T00:01:07.670Z,0.30
2023-01-05T00:03:35.774Z,0.55
2023-01-05T00:06:04.653Z,1.65
2023-01-05T00:08:36.682Z,0.30
2023-01-05T00:11:30.288Z,0.38
2023-01-05T00:14:15.747Z,0.30
2023-01-05T00:17:01.685Z,0.40
2023-01-05T00:19:47.521Z,0.35
2023-01-05T00:22:32.373Z,1.45
2023-01-05T00:25:07.381Z,0.30
2023-01-05T00:27:37.965Z,0.40
2023-01-05T00:30:05.576Z,0.73
2023-01-05T00:32:32.146Z,0.52
2023-01-05T00:34:59.441Z,0.68
2023-01-05T00:37:30.467Z,0.52
2023-01-05T00:39:57.068Z,0.93
2023-01-05T00:42:24.895Z,0.60
2023-01-05T00:44:51.588Z,0.82
2023-01-05T00:47:18.216Z,1.50
2023-01-05T00:49:44.806Z,1.45
2023-01-05T00:52:11.388Z,1.80
2023-01-05T00:54:38.014Z,2.28
2023-01-05T00:57:07.107Z,3.00
2023-01-05T00:59:33.739Z,0.98
2023-01-05T01:02:00.477Z,4.43
2023-01-05T01:04:27.212Z,2.58
2023-01-05T01:06:54.761Z,1.58
2023-01-05T01:09:21.414Z,4.55
2023-01-05T01:11:48.423Z,1.90
2023-01-05T01:14:15.189Z,1.92
2023-01-05T01:16:43.028Z,3.92
2023-01-05T01:19:14.379Z,2.30
2023-01-05T01:21:41.178Z,3.47
2023-01-05T01:24:08.166Z,2.72
2023-01-05T01:26:34.701Z,3.05
2023-01-05T01:29:01.265Z,1.42
2023-01-05T01:31:27.838Z,2.58
2023-01-05T01:33:54.423Z,4.07
2023-01-05T01:36:20.999Z,5.80
2023-01-05T01:38:47.542Z,2.22
2023-01-05T01:41:14.146Z,3.20
2023-01-05T01:43:45.538Z,3.70
2023-01-05T01:46:14.227Z,9.15
2023-01-05T01:48:48.802Z,7.40
2023-01-05T01:51:22.888Z,5.82
2023-01-05T01:53:57.948Z,7.50
2023-01-05T01:56:27.326Z,7.60
2023-01-05T01:58:54.348Z,8.68
2023-01-05T02:01:21.281Z,10.10
2023-01-05T02:03:48.045Z,8.82
2023-01-05T02:06:15.236Z,12.52
2023-01-05T02:08:42.513Z,10.50
2023-01-05T02:11:24.675Z,17.55
2023-01-05T02:14:12.416Z,13.32
2023-01-05T02:16:54.326Z,17.15
2023-01-05T02:19:38.975Z,14.93
2023-01-05T02:22:53.794Z,15.10
2023-01-05T02:25:33.152Z,13.18
2023-01-05T02:28:37.990Z,15.75
2023-01-05T02:31:18.747Z,15.20
2023-01-05T02:34:09.412Z,11.93
2023-01-05T02:36:54.948Z,14.38
2023-01-05T02:39:26.696Z,17.17
2023-01-05T02:42:11.796Z,18.17
2023-01-05T02:44:38.507Z,15.65
2023-01-05T02:47:08.339Z,19.67
2023-01-05T02:49:41.097Z,16.63
2023-01-05T02:52:09.717Z,14.02
2023-01-05T02:54:52.459Z,16.13
2023-01-05T02:58:00.676Z,10.02
2023-01-05T03:00:36.300Z,17.27
2023-01-05T03:03:11.757Z,15.95
2023-01-05T03:05:49.119Z,14.82
2023-01-05T03:08:27.659Z,13.35
2023-01-05T03:11:23.802Z,13.98
2023-01-05T03:14:01.007Z,12.55
2023-01-05T03:16:35.316Z,16.90
2023-01-05T03:19:25.148Z,11.20
2023-01-05T03:22:13.580Z,14.55
2023-01-05T03:25:00.394Z,12.65
2023-01-05T03:27:46.863Z,17.15
2023-01-05T03:30:32.762Z,9.82
2023-01-05T03:33:27.627Z,14.48
2023-01-05T03:35:58.475Z,14.85
2023-01-05T03:38:31.049Z,17.92
2023-01-05T03:41:01.317Z,16.67
2023-01-05T03:43:28.279Z,14.48
2023-01-05T03:45:57.284Z,16.70
2023-01-05T03:48:27.307Z,15.63
2023-01-05T03:50:54.227Z,21.35
2023-01-05T03:53:20.984Z,19.25
2023-01-05T03:55:47.566Z,11.93
2023-01-05T03:58:14.132Z,18.70
2023-01-05T04:00:40.705Z,17.08
2023-01-05T04:03:09.222Z,12.50
2023-01-05T04:05:36.217Z,14.00
2023-01-05T04:08:02.895Z,15.68
2023-01-05T04:10:29.567Z,14.20
2023-01-05T04:12:56.298Z,20.23
2023-01-05T04:15:23.250Z,17.15
2023-01-05T04:17:49.889Z,17.27
2023-01-05T04:20:16.896Z,16.98
2023-01-05T04:22:43.426Z,22.33
2023-01-05T04:25:10.461Z,16.77
2023-01-05T04:27:37.074Z,10.55
2023-01-05T04:30:04.812Z,19.27
2023-01-05T04:32:31.374Z,21.92
2023-01-05T04:34:57.941Z,19.10
2023-01-05T04:37:24.597Z,19.50
2023-01-05T04:39:51.393Z,17.98
2023-01-05T04:42:17.980Z,24.00
2023-01-05T04:44:44.577Z,16.45
2023-01-05T04:47:11.260Z,17.52
2023-01-05T04:49:37.799Z,27.38
2023-01-05T04:52:04.534Z,16.85
2023-01-05T04:54:31.205Z,27.27
2023-01-05T04:56:57.740Z,16.52
2023-01-05T04:59:24.303Z,16.17
2023-01-05T05:01:51.044Z,21.73
2023-01-05T05:04:17.639Z,16.15
2023-01-05T05:06:44.210Z,25.33
2023-01-05T05:09:10.783Z,20.63
2023-01-05T05:11:37.333Z,19.00
2023-01-05T05:14:03.905Z,20.75
2023-01-05T05:16:30.591Z,22.27
2023-01-05T05:18:57.679Z,20.75
2023-01-05T05:21:24.247Z,17.10
2023-01-05T05:23:50.846Z,23.55
2023-01-05T05:26:17.537Z,18.38
2023-01-05T05:28:44.220Z,23.73
2023-01-05T05:31:10.898Z,18.75
2023-01-05T05:33:38.175Z,22.88
2023-01-05T05:36:06.021Z,20.13
2023-01-05T05:38:32.695Z,21.52
2023-01-05T05:40:59.269Z,20.55
2023-01-05T05:43:25.815Z,19.45
2023-01-05T05:45:52.465Z,22.17
2023-01-05T05:48:19.404Z,23.38
2023-01-05T05:50:46.080Z,28.45
2023-01-05T05:53:12.708Z,17.73
2023-01-05T05:55:39.342Z,15.25
2023-01-05T05:58:06.054Z,27.45
2023-01-05T06:00:32.901Z,23.33
2023-01-05T06:02:59.623Z,17.35
2023-01-05T06:05:26.284Z,22.85
2023-01-05T06:07:52.887Z,29.60
2023-01-05T06:10:19.528Z,18.27
2023-01-05T06:12:46.328Z,21.58
2023-01-05T06:15:12.979Z,23.48
2023-01-05T06:17:39.643Z,22.35
2023-01-05T06:20:07.130Z,25.30
2023-01-05T06:22:33.816Z,27.60
2023-01-05T06:25:00.359Z,25.08
2023-01-05T06:27:26.964Z,19.23
2023-01-05T06:29:53.593Z,23.92
2023-01-05T06:32:20.193Z,23.70
2023-01-05T06:34:46.854Z,28.20
2023-01-05T06:37:13.471Z,23.83
2023-01-05T06:39:40.004Z,22.77
2023-01-05T06:42:06.662Z,20.52
2023-01-05T06:44:33.387Z,19.75
2023-01-05T06:46:59.949Z,24.63
2023-01-05T06:49:26.514Z,27.42
2023-01-05T06:51:53.493Z,19.30
2023-01-05T06:54:20.077Z,22.10
2023-01-05T06:56:46.795Z,24.30
2023-01-05T06:59:13.502Z,24.60
2023-01-05T07:01:40.221Z,25.75
2023-01-05T07:04:07.043Z,20.90
2023-01-05T07:06:35.133Z,23.42
2023-01-05T07:09:02.218Z,36.42
2023-01-05T07:11:28.923Z,25.98
2023-01-05T07:13:55.505Z,27.98
2023-01-05T07:16:22.171Z,22.45
2023-01-05T07:18:48.832Z,27.17
2023-01-05T07:21:15.446Z,28.65
2023-01-05T07:23:42.082Z,26.67
2023-01-05T07:26:09.883Z,29.77
2023-01-05T07:28:38.146Z,29.65
2023-01-05T07:31:07.426Z,29.15
2023-01-05T07:33:39.579Z,27.65
2023-01-05T07:36:07.561Z,32.90
2023-01-05T07:38:34.280Z,23.88
2023-01-05T07:41:01.611Z,33.50
2023-01-05T07:43:28.465Z,23.50
2023-01-05T07:46:03.011Z,24.20
2023-01-05T07:48:29.966Z,25.48
2023-01-05T07:51:04.585Z,40.15
2023-01-05T07:53:35.579Z,24.70
2023-01-05T07:56:06.368Z,24.42
2023-01-05T07:58:33.423Z,27.92
2023-01-05T08:01:08.693Z,28.42
2023-01-05T08:03:35.893Z,30.27
2023-01-05T08:06:10.084Z,26.67
2023-01-05T08:08:36.728Z,27.17
2023-01-05T08:11:08.045Z,27.02
2023-01-05T08:13:55.172Z,34.40
2023-01-05T08:16:22.582Z,32.45
2023-01-05T08:18:49.226Z,25.88
2023-01-05T08:21:15.833Z,25.08
2023-01-05T08:23:42.572Z,25.23
2023-01-05T08:26:13.167Z,25.80
2023-01-05T08:28:40.163Z,26.20
2023-01-05T08:31:10.229Z,25.33
2023-01-05T08:33:36.772Z,25.25
2023-01-05T08:36:09.232Z,25.95
2023-01-05T08:38:36.053Z,31.50
2023-01-05T08:41:02.841Z,26.88
2023-01-05T08:43:29.588Z,26.02
2023-01-05T08:45:56.225Z,29.83
2023-01-05T08:48:23.136Z,22.95
2023-01-05T08:50:49.854Z,24.58
2023-01-05T08:53:16.431Z,31.10
2023-01-05T08:55:43.037Z,26.40
2023-01-05T08:58:09.594Z,32.92
2023-01-05T09:00:36.113Z,22.70
2023-01-05T09:03:02.879Z,24.38
2023-01-05T09:05:29.620Z,25.02
2023-01-05T09:07:56.252Z,24.85
2023-01-05T09:10:23.032Z,32.95
2023-01-05T09:12:49.638Z,23.25
2023-01-05T09:15:16.215Z,21.05
2023-01-05T09:17:42.938Z,21.95
2023-01-05T09:20:09.892Z,27.25
2023-01-05T09:22:36.678Z,29.10
2023-01-05T09:25:04.488Z,27.90
2023-01-05T09:27:31.095Z,38.22
2023-01-05T09:29:57.664Z,24.00
2023-01-05T09:32:24.683Z,25.67
2023-01-05T09:34:51.307Z,34.22
2023-01-05T09:37:17.962Z,29.00
2023-01-05T09:39:44.605Z,21.77
2023-01-05T09:42:17.784Z,23.23
2023-01-05T09:44:56.937Z,29.73
2023-01-05T09:47:41.392Z,25.15
2023-01-05T09:50:20.623Z,30.30
2023-01-05T09:52:49.548Z,23.15
2023-01-05T09:55:18.543Z,28.95
2023-01-05T09:58:05.331Z,22.85
2023-01-05T10:00:33.282Z,32.22
2023-01-05T10:03:03.892Z,24.98
2023-01-05T10:05:33.108Z,21.48
2023-01-05T10:08:07.194Z,27.67
2023-01-05T10:11:13.514Z,30.70
2023-01-05T10:13:50.160Z,17.30
2023-01-05T10:16:18.054Z,34.17
2023-01-05T10:18:45.641Z,24.90
2023-01-05T10:21:27.940Z,26.63
2023-01-05T10:27:24.103Z,23.03
2023-01-05T10:29:53.549Z,29.30
2023-01-05T10:33:03.904Z,23.90
2023-01-05T10:36:02.720Z,23.75
2023-01-05T10:38:49.004Z,25.48
2023-01-05T10:41:56.091Z,30.90
2023-01-05T10:44:47.844Z,30.05
2023-01-05T10:47:14.932Z,29.02
2023-01-05T10:49:45.221Z,25.33
2023-01-05T10:52:17.669Z,28.15
2023-01-05T10:54:56.818Z,28.30
2023-01-05T10:57:34.792Z,26.08
2023-01-05T11:00:15.756Z,24.23
2023-01-05T11:02:50.351Z,24.45
2023-01-05T11:05:35.046Z,29.35
2023-01-05T11:08:05.720Z,29.50
2023-01-05T11:10:48.161Z,19.70
2023-01-05T11:13:33.033Z,20.83
2023-01-05T11:16:07.987Z,23.02
2023-01-05T11:18:47.512Z,22.35
2023-01-05T11:21:18.386Z,26.95
2023-01-05T11:23:56.968Z,24.15
2023-01-05T11:26:28.147Z,23.48
2023-01-05T11:29:00.306Z,28.47
2023-01-05T11:31:32.276Z,26.10
2023-01-05T11:36:26.820Z,24.58
2023-01-05T11:38:58.108Z,23.67
2023-01-05T11:41:25.332Z,27.25
2023-01-05T11:43:54.593Z,28.40
2023-01-05T11:46:22.927Z,28.15
2023-01-05T11:48:55.722Z,23.60
2023-01-05T11:51:40.102Z,24.13
2023-01-05T11:54:28.739Z,23.30
2023-01-05T11:57:18.542Z,21.73
2023-01-05T11:59:47.130Z,26.38
2023-01-05T12:02:25.945Z,23.15
2023-01-05T12:05:22.218Z,24.02
2023-01-05T12:07:55.323Z,20.20
2023-01-05T12:10:33.268Z,27.90
2023-01-05T12:13:23.270Z,24.45
2023-01-05T12:15:55.996Z,25.75
2023-01-05T12:18:25.075Z,21.92
2023-01-05T12:21:15.007Z,32.60
2023-01-05T12:23:56.451Z,22.77
2023-01-05T12:26:36.655Z,24.92
2023-01-05T12:34:00.094Z,29.58
2023-01-05T12:35:42.517Z,23.27
2023-01-05T12:38:38.001Z,27.75
2023-01-05T12:41:22.136Z,22.40
2023-01-05T12:44:01.601Z,21.15
2023-01-05T12:46:50.001Z,24.52
2023-01-05T12:49:25.690Z,26.90
2023-01-05T12:52:13.605Z,28.27
2023-01-05T12:54:58.549Z,28.42
2023-01-05T12:57:33.666Z,27.02
2023-01-05T13:00:06.485Z,25.35
2023-01-05T13:02:36.596Z,24.27
2023-01-05T13:05:32.608Z,26.85
2023-01-05T13:08:17.592Z,21.58
2023-01-05T13:10:57.005Z,20.15
2023-01-05T13:14:00.707Z,27.13
2023-01-05T13:16:40.015Z,23.38
2023-01-05T13:19:34.499Z,24.77
2023-01-05T13:22:14.402Z,26.48
2023-01-05T13:24:55.116Z,24.08
2023-01-05T13:27:21.759Z,23.20
2023-01-05T13:29:54.338Z,28.98
2023-01-05T13:35:28.699Z,21.20
2023-01-05T13:38:37.263Z,25.55
2023-01-05T13:41:28.743Z,23.95
2023-01-05T13:44:28.536Z,21.88
2023-01-05T13:47:27.770Z,25.02
2023-01-05T13:50:03.739Z,24.83
2023-01-05T13:52:39.231Z,22.77
2023-01-05T13:55:17.727Z,24.23
2023-01-05T13:57:49.254Z,29.42
2023-01-05T14:00:25.021Z,20.40
2023-01-05T14:03:00.329Z,26.85
2023-01-05T14:05:31.953Z,32.53
2023-01-05T14:08:02.831Z,20.88
2023-01-05T14:10:32.389Z,29.92
2023-01-05T14:12:59.679Z,24.30
2023-01-05T14:15:35.105Z,23.30
2023-01-05T14:18:03.262Z,25.33
2023-01-05T14:21:00.722Z,25.38
2023-01-05T14:23:27.313Z,25.42
2023-01-05T14:26:03.890Z,33.63
2023-01-05T14:28:30.434Z,26.80
2023-01-05T14:31:15.626Z,21.40
2023-01-05T14:33:57.435Z,22.83
2023-01-05T14:36:37.581Z,24.15
2023-01-05T14:39:21.945Z,22.23
2023-01-05T14:41:57.346Z,20.27
2023-01-05T14:44:31.203Z,24.60
2023-01-05T14:46:58.552Z,27.50
2023-01-05T14:49:36.826Z,28.38
2023-01-05T14:52:06.938Z,21.05
2023-01-05T14:54:42.809Z,24.50
2023-01-05T14:57:30.926Z,25.67
2023-01-05T15:00:06.341Z,24.67
2023-01-05T15:02:42.583Z,19.60
2023-01-05T15:05:14.304Z,30.08
2023-01-05T15:07:55.065Z,23.08
2023-01-05T15:10:45.376Z,22.10
2023-01-05T15:14:05.571Z,21.67
2023-01-05T15:16:41.348Z,21.38
2023-01-05T15:19:26.309Z,24.73
2023-01-05T15:22:48.247Z,23.60
2023-01-05T15:25:23.576Z,27.30
2023-01-05T15:28:02.243Z,22.70
2023-01-05T15:30:38.061Z,23.83
2023-01-05T15:33:13.741Z,21.92
2023-01-05T15:36:01.174Z,22.67
2023-01-05T15:38:29.974Z,23.38
2023-01-05T15:41:09.197Z,20.67
2023-01-05T15:43:39.001Z,22.33
2023-01-05T15:46:06.184Z,21.80
2023-01-05T15:48:38.246Z,23.75
2023-01-05T15:53:38.052Z,27.42
2023-01-05T15:56:07.005Z,19.55
2023-01-05T15:58:43.457Z,19.80
2023-01-05T16:01:16.079Z,32.58
2023-01-05T16:03:45.332Z,19.08
2023-01-05T16:06:16.575Z,22.00
2023-01-05T16:08:46.408Z,23.97
2023-01-05T16:11:17.973Z,20.63
2023-01-05T16:13:57.042Z,22.17
2023-01-05T16:16:51.297Z,34.95
2023-01-05T16:19:39.064Z,16.45
2023-01-05T16:22:21.501Z,16.23
2023-01-05T16:24:58.919Z,26.08
2023-01-05T16:27:26.030Z,23.45
2023-01-05T16:29:52.770Z,20.42
2023-01-05T16:32:36.961Z,22.15
2023-01-05T16:35:23.956Z,17.70
2023-01-05T16:38:13.033Z,20.30
2023-01-05T16:40:45.774Z,15.32
2023-01-05T16:43:32.626Z,25.63
2023-01-05T16:46:21.220Z,20.40
2023-01-05T16:48:51.922Z,14.85
2023-01-05T16:51:21.323Z,18.30
2023-01-05T16:53:52.569Z,16.48
2023-01-05T16:56:20.382Z,14.03
2023-01-05T16:58:46.999Z,13.93
2023-01-05T17:01:13.497Z,13.82
2023-01-05T17:03:41.151Z,10.63
2023-01-05T17:06:21.487Z,13.05
2023-01-05T17:08:48.591Z,16.15
2023-01-05T17:11:15.493Z,8.52
2023-01-05T17:13:48.593Z,14.07
2023-01-05T17:16:15.697Z,10.05
2023-01-05T17:18:42.468Z,11.35
2023-01-05T17:21:14.616Z,7.78
2023-01-05T17:23:47.283Z,9.27
2023-01-05T17:26:27.540Z,8.82
2023-01-05T17:28:57.831Z,8.70
2023-01-05T17:31:24.673Z,8.93
2023-01-05T17:33:51.244Z,6.00
2023-01-05T17:36:19.524Z,9.40
2023-01-05T17:38:47.436Z,6.85
2023-01-05T17:41:16.050Z,7.50
2023-01-05T17:43:44.874Z,5.55
2023-01-05T17:46:17.834Z,7.50
2023-01-05T17:48:44.556Z,7.53
2023-01-05T17:51:11.130Z,6.57
2023-01-05T17:53:37.690Z,8.70
2023-01-05T17:56:04.563Z,9.23
2023-01-05T17:58:31.180Z,7.72
2023-01-05T18:00:57.727Z,10.18
2023-01-05T18:03:24.317Z,8.52
2023-01-05T18:05:52.798Z,6.68
2023-01-05T18:08:21.177Z,11.88
2023-01-05T18:10:48.009Z,7.57
2023-01-05T18:13:15.812Z,9.70
2023-01-05T18:15:46.832Z,7.65
2023-01-05T18:18:14.080Z,7.57
2023-01-05T18:20:41.562Z,7.82
2023-01-05T18:23:10.040Z,6.28
2023-01-05T18:25:39.251Z,7.10
2023-01-05T18:28:06.129Z,8.23
2023-01-05T18:30:32.837Z,6.03
2023-01-05T18:32:59.399Z,5.22
2023-01-05T18:35:25.991Z,6.93
2023-01-05T18:40:21.690Z,4.95
2023-01-05T18:42:48.267Z,6.20
2023-01-05T18:45:19.448Z,4.82
2023-01-05T18:47:55.005Z,5.72
2023-01-05T18:50:21.575Z,5.82
2023-01-05T18:52:48.861Z,5.10
2023-01-05T18:55:15.557Z,5.90
2023-01-05T18:57:42.159Z,5.43
2023-01-05T19:00:09.607Z,4.65
2023-01-05T19:02:36.138Z,5.95
2023-01-05T19:05:02.861Z,4.65
2023-01-05T19:07:29.418Z,4.53
2023-01-05T19:09:55.941Z,5.65
2023-01-05T19:12:22.529Z,4.78
2023-01-05T19:14:49.082Z,4.45
2023-01-05T19:17:15.632Z,5.35
2023-01-05T19:19:42.297Z,4.78
2023-01-05T19:22:08.870Z,4.88
2023-01-05T19:24:35.524Z,4.97
2023-01-05T19:27:02.272Z,6.75
2023-01-05T19:29:28.900Z,5.78
2023-01-05T19:31:55.452Z,3.78
2023-01-05T19:34:22.040Z,4.40
2023-01-05T19:36:48.833Z,4.25
2023-01-05T19:39:21.828Z,4.32
2023-01-05T19:41:51.380Z,6.32
2023-01-05T19:44:20.227Z,3.42
2023-01-05T19:46:54.242Z,5.40
2023-01-05T19:49:26.165Z,6.28
2023-01-05T19:51:53.510Z,6.18
2023-01-05T19:54:22.558Z,3.33
2023-01-05T19:56:49.541Z,3.97
2023-01-05T19:59:24.620Z,2.88
2023-01-05T20:01:51.337Z,3.80
2023-01-05T20:04:18.095Z,23.73
2023-01-05T20:06:45.687Z,12.90
2023-01-05T20:09:15.591Z,10.73
2023-01-05T20:11:44.208Z,7.00
2023-01-05T20:14:22.503Z,4.75
2023-01-05T20:16:53.566Z,4.13
2023-01-05T20:19:21.552Z,5.60
2023-01-05T20:21:49.580Z,4.50
2023-01-05T20:24:22.461Z,3.63
2023-01-05T20:26:50.960Z,3.70
2023-01-05T20:29:19.669Z,5.07
2023-01-05T20:32:00.970Z,6.70
2023-01-05T20:34:32.013Z,2.30
2023-01-05T20:36:59.978Z,3.97
2023-01-05T20:39:26.588Z,3.45
2023-01-05T20:41:54.268Z,4.63
2023-01-05T20:44:25.753Z,4.18
2023-01-05T20:46:54.192Z,2.33
2023-01-05T20:49:22.141Z,2.85
2023-01-05T20:51:49.242Z,4.55
2023-01-05T20:54:15.852Z,10.63
2023-01-05T20:56:43.895Z,33.63
2023-01-05T20:59:30.842Z,12.90
2023-01-05T21:01:59.269Z,2.95
2023-01-05T21:04:27.684Z,1.95
2023-01-05T21:06:54.833Z,1.77
2023-01-05T21:09:22.211Z,0.90
2023-01-05T21:11:48.839Z,0.70
2023-01-05T21:14:15.915Z,2.45
2023-01-05T21:16:45.650Z,1.80
2023-01-05T21:19:17.509Z,0.70
2023-01-05T21:21:49.509Z,0.43
2023-01-05T21:24:16.338Z,2.05
2023-01-05T21:26:43.504Z,0.60
2023-01-05T21:29:16.151Z,0.98
2023-01-05T21:31:43.124Z,3.40
2023-01-05T21:34:11.708Z,1.73
2023-01-05T21:36:41.709Z,3.25
2023-01-05T21:39:09.243Z,2.03
2023-01-05T21:41:55.963Z,3.30
2023-01-05T21:44:23.377Z,3.47
2023-01-05T21:46:50.731Z,1.25
2023-01-05T21:49:18.443Z,3.33
2023-01-05T21:52:04.151Z,2.60
2023-01-05T21:54:49.559Z,1.10
2023-01-05T21:57:16.519Z,1.60
2023-01-05T21:59:43.604Z,1.33
2023-01-05T22:02:10.802Z,2.70
2023-01-05T22:04:37.408Z,1.65
2023-01-05T22:07:07.245Z,1.95
2023-01-05T22:09:35.133Z,3.75
2023-01-05T22:12:02.821Z,2.10
2023-01-05T22:14:29.638Z,2.80
2023-01-05T22:16:56.212Z,1.58
2023-01-05T22:19:22.788Z,1.95
2023-01-05T22:21:49.382Z,2.05
2023-01-05T22:24:16.082Z,3.30
2023-01-05T22:26:42.776Z,1.63
2023-01-05T22:29:09.351Z,0.60
2023-01-05T22:31:36.473Z,1.83
2023-01-05T22:34:03.614Z,1.63
2023-01-05T22:36:31.738Z,2.55
2023-01-05T22:38:58.805Z,1.30
2023-01-05T22:41:29.801Z,2.53
2023-01-05T22:43:57.647Z,3.72
2023-01-05T22:46:27.505Z,1.60
2023-01-05T22:48:55.941Z,6.53
2023-01-05T22:51:30.554Z,2.63
2023-01-05T22:53:58.418Z,2.45
2023-01-05T22:56:27.091Z,1.33
2023-01-05T22:58:55.928Z,5.55
2023-01-05T23:01:27.741Z,2.08
2023-01-05T23:03:56.452Z,2.13
2023-01-05T23:06:23.699Z,2.38
2023-01-05T23:08:51.591Z,1.77
2023-01-05T23:11:24.197Z,3.70
2023-01-05T23:13:51.867Z,4.70
2023-01-05T23:16:19.261Z,5.13
2023-01-05T23:18:48.353Z,3.03
2023-01-05T23:21:15.771Z,7.28
2023-01-05T23:23:44.088Z,2.92
2023-01-05T23:26:12.841Z,2.50
2023-01-05T23:28:40.969Z,4.18
2023-01-05T23:31:07.665Z,2.20
2023-01-05T23:33:36.557Z,1.77
2023-01-05T23:36:04.569Z,1.30
2023-01-05T23:38:32.034Z,2.72
2023-01-05T23:41:00.223Z,1.60
2023-01-05T23:43:28.471Z,1.40
2023-01-05T23:46:08.310Z,3.90
2023-01-05T23:48:36.101Z,1.95
2023-01-05T23:51:04.561Z,2.70
2023-01-05T23:53:31.892Z,2.28
2023-01-05T23:56:10.036Z,2.55
2023-01-05T23:58:36.757Z,4.55
